sensor_id;sensor_type;location;lat;lon;timestamp;P1;durP1;ratioP1;P2;durP2;ratioP2
29662;SDS011;16578;53.266;7.920;2022-11-20T00:00:07;20.17;;;13.48;;
29662;SDS011;16578;53.266;7.920;2022-11-20T00:02:33;20.38;;;13.27;;
29662;SDS011;16578;53.266;7.920;2022-11-20T00:04:58;20.55;;;12.30;;
29662;SDS011;16578;53.266;7.920;2022-11-20T00:07:24;18.20;;;12.38;;
29662;SDS011;16578;53.266;7.920;2022-11-20T00:09:50;19.25;;;11.60;;
29662;SDS011;16578;53.266;7.920;2022-11-20T00:12:15;17.83;;;11.30;;
29662;SDS011;16578;53.266;7.920;2022-11-20T00:14:41;18.15;;;11.98;;
29662;SDS011;16578;53.266;7.920;2022-11-20T00:17:06;14.82;;;10.50;;
29662;SDS011;16578;53.266;7.920;2022-11-20T00:19:32;16.85;;;12.15;;
29662;SDS011;16578;53.266;7.920;2022-11-20T00:21:57;18.38;;;11.27;;
29662;SDS011;16578;53.266;7.920;2022-11-20T00:24:23;15.40;;;10.65;;
29662;SDS011;16578;53.266;7.920;2022-11-20T00:26:48;16.42;;;11.63;;
29662;SDS011;16578;53.266;7.920;2022-11-20T00:29:14;13.32;;;9.80;;
29662;SDS011;16578;53.266;7.920;2022-11-20T00:31:40;15.02;;;9.88;;
29662;SDS011;16578;53.266;7.920;2022-11-20T00:34:05;15.93;;;10.43;;
29662;SDS011;16578;53.266;7.920;2022-11-20T00:36:32;16.45;;;10.75;;
29662;SDS011;16578;53.266;7.920;2022-11-20T00:38:58;14.95;;;10.65;;
29662;SDS011;16578;53.266;7.920;2022-11-20T00:41:24;14.60;;;10.50;;
29662;SDS011;16578;53.266;7.920;2022-11-20T00:43:51;16.40;;;10.88;;
29662;SDS011;16578;53.266;7.920;2022-11-20T00:46:19;13.52;;;9.52;;
29662;SDS011;16578;53.266;7.920;2022-11-20T00:48:46;15.10;;;11.07;;
29662;SDS011;16578;53.266;7.920;2022-11-20T00:51:13;12.93;;;10.27;;
29662;SDS011;16578;53.266;7.920;2022-11-20T00:53:40;15.65;;;10.68;;
29662;SDS011;16578;53.266;7.920;2022-11-20T00:56:06;15.65;;;11.68;;
29662;SDS011;16578;53.266;7.920;2022-11-20T00:58:35;14.95;;;10.93;;
29662;SDS011;16578;53.266;7.920;2022-11-20T01:01:15;14.38;;;10.30;;
29662;SDS011;16578;53.266;7.920;2022-11-20T01:03:42;15.55;;;10.02;;
29662;SDS011;16578;53.266;7.920;2022-11-20T01:06:13;16.60;;;10.57;;
29662;SDS011;16578;53.266;7.920;2022-11-20T01:08:39;14.02;;;8.90;;
29662;SDS011;16578;53.266;7.920;2022-11-20T01:11:06;16.52;;;10.82;;
29662;SDS011;16578;53.266;7.920;2022-11-20T01:13:34;14.77;;;10.38;;
29662;SDS011;16578;53.266;7.920;2022-11-20T01:18:36;13.57;;;10.18;;
29662;SDS011;16578;53.266;7.920;2022-11-20T01:21:13;14.95;;;10.57;;
29662;SDS011;16578;53.266;7.920;2022-11-20T01:23:43;15.25;;;10.50;;
29662;SDS011;16578;53.266;7.920;2022-11-20T01:26:11;14.55;;;10.20;;
29662;SDS011;16578;53.266;7.920;2022-11-20T01:31:15;13.93;;;10.00;;
29662;SDS011;16578;53.266;7.920;2022-11-20T01:33:43;15.68;;;9.98;;
29662;SDS011;16578;53.266;7.920;2022-11-20T01:36:09;15.35;;;9.93;;
29662;SDS011;16578;53.266;7.920;2022-11-20T01:38:36;14.63;;;10.40;;
29662;SDS011;16578;53.266;7.920;2022-11-20T01:41:02;14.90;;;11.02;;
29662;SDS011;16578;53.266;7.920;2022-11-20T01:43:28;15.65;;;10.27;;
29662;SDS011;16578;53.266;7.920;2022-11-20T01:51:58;17.10;;;10.20;;
29662;SDS011;16578;53.266;7.920;2022-11-20T01:54:11;12.90;;;9.25;;
29662;SDS011;16578;53.266;7.920;2022-11-20T01:56:51;13.57;;;9.70;;
29662;SDS011;16578;53.266;7.920;2022-11-20T01:59:20;13.90;;;9.63;;
29662;SDS011;16578;53.266;7.920;2022-11-20T02:01:48;13.80;;;9.45;;
29662;SDS011;16578;53.266;7.920;2022-11-20T02:04:14;13.38;;;9.02;;
29662;SDS011;16578;53.266;7.920;2022-11-20T02:06:46;13.15;;;9.25;;
29662;SDS011;16578;53.266;7.920;2022-11-20T02:09:16;16.58;;;9.48;;
29662;SDS011;16578;53.266;7.920;2022-11-20T02:11:42;13.95;;;9.00;;
29662;SDS011;16578;53.266;7.920;2022-11-20T02:14:07;14.63;;;9.43;;
29662;SDS011;16578;53.266;7.920;2022-11-20T02:16:35;14.13;;;10.48;;
29662;SDS011;16578;53.266;7.920;2022-11-20T02:19:04;13.68;;;10.15;;
29662;SDS011;16578;53.266;7.920;2022-11-20T02:21:43;13.57;;;9.27;;
29662;SDS011;16578;53.266;7.920;2022-11-20T02:24:14;13.82;;;8.98;;
29662;SDS011;16578;53.266;7.920;2022-11-20T02:26:52;13.85;;;9.68;;
29662;SDS011;16578;53.266;7.920;2022-11-20T02:30:06;14.50;;;9.13;;
29662;SDS011;16578;53.266;7.920;2022-11-20T02:32:18;12.55;;;8.15;;
29662;SDS011;16578;53.266;7.920;2022-11-20T02:34:57;13.07;;;8.40;;
29662;SDS011;16578;53.266;7.920;2022-11-20T02:37:32;12.27;;;8.40;;
29662;SDS011;16578;53.266;7.920;2022-11-20T02:39:59;13.07;;;8.57;;
29662;SDS011;16578;53.266;7.920;2022-11-20T02:42:25;14.23;;;8.13;;
29662;SDS011;16578;53.266;7.920;2022-11-20T02:44:50;12.95;;;8.68;;
29662;SDS011;16578;53.266;7.920;2022-11-20T02:47:16;13.80;;;8.40;;
29662;SDS011;16578;53.266;7.920;2022-11-20T02:49:41;15.10;;;8.57;;
29662;SDS011;16578;53.266;7.920;2022-11-20T02:52:07;12.15;;;8.43;;
29662;SDS011;16578;53.266;7.920;2022-11-20T02:54:32;10.82;;;8.13;;
29662;SDS011;16578;53.266;7.920;2022-11-20T02:56:58;12.30;;;8.05;;
29662;SDS011;16578;53.266;7.920;2022-11-20T02:59:23;12.30;;;8.73;;
29662;SDS011;16578;53.266;7.920;2022-11-20T03:01:49;10.30;;;8.05;;
29662;SDS011;16578;53.266;7.920;2022-11-20T03:04:14;11.32;;;7.85;;
29662;SDS011;16578;53.266;7.920;2022-11-20T03:06:40;10.07;;;7.55;;
29662;SDS011;16578;53.266;7.920;2022-11-20T03:09:05;12.07;;;7.35;;
29662;SDS011;16578;53.266;7.920;2022-11-20T03:11:31;8.35;;;6.28;;
29662;SDS011;16578;53.266;7.920;2022-11-20T03:13:57;9.90;;;6.68;;
29662;SDS011;16578;53.266;7.920;2022-11-20T03:16:22;10.48;;;6.72;;
29662;SDS011;16578;53.266;7.920;2022-11-20T03:18:48;10.93;;;6.53;;
29662;SDS011;16578;53.266;7.920;2022-11-20T03:21:14;10.48;;;7.38;;
29662;SDS011;16578;53.266;7.920;2022-11-20T03:23:40;9.75;;;7.40;;
29662;SDS011;16578;53.266;7.920;2022-11-20T03:26:14;10.30;;;6.93;;
29662;SDS011;16578;53.266;7.920;2022-11-20T03:28:48;8.77;;;6.40;;
29662;SDS011;16578;53.266;7.920;2022-11-20T03:31:16;9.80;;;6.88;;
29662;SDS011;16578;53.266;7.920;2022-11-20T03:33:43;8.35;;;6.22;;
29662;SDS011;16578;53.266;7.920;2022-11-20T03:36:10;9.43;;;6.07;;
29662;SDS011;16578;53.266;7.920;2022-11-20T03:38:37;8.30;;;5.80;;
29662;SDS011;16578;53.266;7.920;2022-11-20T03:41:04;8.43;;;6.10;;
29662;SDS011;16578;53.266;7.920;2022-11-20T03:43:32;8.35;;;5.75;;
29662;SDS011;16578;53.266;7.920;2022-11-20T03:45:57;7.15;;;5.38;;
29662;SDS011;16578;53.266;7.920;2022-11-20T03:48:23;7.75;;;5.03;;
29662;SDS011;16578;53.266;7.920;2022-11-20T03:50:50;5.72;;;4.63;;
29662;SDS011;16578;53.266;7.920;2022-11-20T03:53:16;7.40;;;5.18;;
29662;SDS011;16578;53.266;7.920;2022-11-20T03:55:42;8.10;;;4.90;;
29662;SDS011;16578;53.266;7.920;2022-11-20T03:58:08;7.18;;;4.90;;
29662;SDS011;16578;53.266;7.920;2022-11-20T04:00:33;5.82;;;4.70;;
29662;SDS011;16578;53.266;7.920;2022-11-20T04:02:59;6.85;;;5.10;;
29662;SDS011;16578;53.266;7.920;2022-11-20T04:05:25;6.28;;;4.65;;
29662;SDS011;16578;53.266;7.920;2022-11-20T04:07:51;7.80;;;5.22;;
29662;SDS011;16578;53.266;7.920;2022-11-20T04:10:16;6.22;;;4.50;;
29662;SDS011;16578;53.266;7.920;2022-11-20T04:12:42;8.77;;;5.97;;
29662;SDS011;16578;53.266;7.920;2022-11-20T04:15:08;7.18;;;5.15;;
29662;SDS011;16578;53.266;7.920;2022-11-20T04:17:34;6.88;;;5.63;;
29662;SDS011;16578;53.266;7.920;2022-11-20T04:20:00;7.80;;;5.20;;
29662;SDS011;16578;53.266;7.920;2022-11-20T04:22:26;6.93;;;5.32;;
29662;SDS011;16578;53.266;7.920;2022-11-20T04:24:51;6.00;;;4.85;;
29662;SDS011;16578;53.266;7.920;2022-11-20T04:27:17;8.38;;;5.80;;
29662;SDS011;16578;53.266;7.920;2022-11-20T04:29:42;7.10;;;5.45;;
29662;SDS011;16578;53.266;7.920;2022-11-20T04:32:08;7.97;;;5.30;;
29662;SDS011;16578;53.266;7.920;2022-11-20T04:34:33;7.22;;;5.10;;
29662;SDS011;16578;53.266;7.920;2022-11-20T04:36:59;7.30;;;5.80;;
29662;SDS011;16578;53.266;7.920;2022-11-20T04:39:25;6.57;;;5.30;;
29662;SDS011;16578;53.266;7.920;2022-11-20T04:41:51;7.05;;;5.32;;
29662;SDS011;16578;53.266;7.920;2022-11-20T04:44:36;7.10;;;5.40;;
29662;SDS011;16578;53.266;7.920;2022-11-20T04:47:02;9.80;;;6.22;;
29662;SDS011;16578;53.266;7.920;2022-11-20T04:49:27;10.50;;;6.20;;
29662;SDS011;16578;53.266;7.920;2022-11-20T04:51:53;8.20;;;6.00;;
29662;SDS011;16578;53.266;7.920;2022-11-20T04:54:19;7.97;;;6.50;;
29662;SDS011;16578;53.266;7.920;2022-11-20T04:56:47;9.48;;;7.18;;
29662;SDS011;16578;53.266;7.920;2022-11-20T04:59:13;7.25;;;5.75;;
29662;SDS011;16578;53.266;7.920;2022-11-20T05:01:39;8.13;;;5.88;;
29662;SDS011;16578;53.266;7.920;2022-11-20T05:04:04;8.25;;;5.93;;
29662;SDS011;16578;53.266;7.920;2022-11-20T05:06:30;9.63;;;6.53;;
29662;SDS011;16578;53.266;7.920;2022-11-20T05:08:56;8.57;;;6.30;;
29662;SDS011;16578;53.266;7.920;2022-11-20T05:11:22;9.38;;;6.47;;
29662;SDS011;16578;53.266;7.920;2022-11-20T05:13:49;8.68;;;6.35;;
29662;SDS011;16578;53.266;7.920;2022-11-20T05:16:19;9.55;;;6.75;;
29662;SDS011;16578;53.266;7.920;2022-11-20T05:18:49;9.30;;;6.65;;
29662;SDS011;16578;53.266;7.920;2022-11-20T05:21:16;9.95;;;6.72;;
29662;SDS011;16578;53.266;7.920;2022-11-20T05:23:42;10.85;;;7.10;;
29662;SDS011;16578;53.266;7.920;2022-11-20T05:26:12;10.43;;;6.95;;
29662;SDS011;16578;53.266;7.920;2022-11-20T05:28:42;11.20;;;7.60;;
29662;SDS011;16578;53.266;7.920;2022-11-20T05:31:12;11.50;;;7.80;;
29662;SDS011;16578;53.266;7.920;2022-11-20T05:33:40;11.48;;;7.53;;
29662;SDS011;16578;53.266;7.920;2022-11-20T05:36:06;12.05;;;7.28;;
29662;SDS011;16578;53.266;7.920;2022-11-20T05:38:32;12.15;;;7.82;;
29662;SDS011;16578;53.266;7.920;2022-11-20T05:41:08;10.05;;;7.03;;
29662;SDS011;16578;53.266;7.920;2022-11-20T05:43:36;10.32;;;7.43;;
29662;SDS011;16578;53.266;7.920;2022-11-20T05:46:03;12.15;;;7.88;;
29662;SDS011;16578;53.266;7.920;2022-11-20T05:48:30;11.77;;;7.90;;
29662;SDS011;16578;53.266;7.920;2022-11-20T05:50:57;11.88;;;7.85;;
29662;SDS011;16578;53.266;7.920;2022-11-20T05:53:24;10.43;;;8.48;;
29662;SDS011;16578;53.266;7.920;2022-11-20T05:56:03;14.05;;;7.80;;
29662;SDS011;16578;53.266;7.920;2022-11-20T05:58:31;11.38;;;7.75;;
29662;SDS011;16578;53.266;7.920;2022-11-20T06:01:30;10.63;;;7.82;;
29662;SDS011;16578;53.266;7.920;2022-11-20T06:03:50;11.65;;;8.38;;
29662;SDS011;16578;53.266;7.920;2022-11-20T06:06:17;11.45;;;8.27;;
29662;SDS011;16578;53.266;7.920;2022-11-20T06:08:44;11.55;;;8.68;;
29662;SDS011;16578;53.266;7.920;2022-11-20T06:11:11;12.02;;;8.15;;
29662;SDS011;16578;53.266;7.920;2022-11-20T06:13:38;7.83;;;5.73;;
29662;SDS011;16578;53.266;7.920;2022-11-20T06:16:04;11.07;;;7.10;;
29662;SDS011;16578;53.266;7.920;2022-11-20T06:18:30;12.23;;;8.73;;
29662;SDS011;16578;53.266;7.920;2022-11-20T06:20:59;11.68;;;7.80;;
29662;SDS011;16578;53.266;7.920;2022-11-20T06:23:33;11.70;;;7.95;;
29662;SDS011;16578;53.266;7.920;2022-11-20T06:26:12;13.23;;;9.07;;
29662;SDS011;16578;53.266;7.920;2022-11-20T06:28:39;12.95;;;8.30;;
29662;SDS011;16578;53.266;7.920;2022-11-20T06:31:05;13.10;;;7.85;;
29662;SDS011;16578;53.266;7.920;2022-11-20T06:33:31;10.57;;;8.30;;
29662;SDS011;16578;53.266;7.920;2022-11-20T06:36:01;14.52;;;9.90;;
29662;SDS011;16578;53.266;7.920;2022-11-20T06:38:27;11.77;;;8.48;;
29662;SDS011;16578;53.266;7.920;2022-11-20T06:40:53;12.30;;;8.98;;
29662;SDS011;16578;53.266;7.920;2022-11-20T06:43:19;11.30;;;8.27;;
29662;SDS011;16578;53.266;7.920;2022-11-20T06:45:44;13.07;;;8.60;;
29662;SDS011;16578;53.266;7.920;2022-11-20T06:48:10;13.07;;;8.95;;
29662;SDS011;16578;53.266;7.920;2022-11-20T06:50:36;12.88;;;8.65;;
29662;SDS011;16578;53.266;7.920;2022-11-20T06:53:02;14.23;;;9.68;;
29662;SDS011;16578;53.266;7.920;2022-11-20T06:55:29;13.32;;;9.70;;
29662;SDS011;16578;53.266;7.920;2022-11-20T06:57:54;14.30;;;9.00;;
29662;SDS011;16578;53.266;7.920;2022-11-20T07:00:20;13.10;;;9.57;;
29662;SDS011;16578;53.266;7.920;2022-11-20T07:02:46;12.80;;;9.05;;
29662;SDS011;16578;53.266;7.920;2022-11-20T07:05:11;13.98;;;9.07;;
29662;SDS011;16578;53.266;7.920;2022-11-20T07:07:37;13.32;;;8.90;;
29662;SDS011;16578;53.266;7.920;2022-11-20T07:10:03;15.15;;;9.55;;
29662;SDS011;16578;53.266;7.920;2022-11-20T07:12:29;14.73;;;9.40;;
29662;SDS011;16578;53.266;7.920;2022-11-20T07:14:54;14.45;;;8.88;;
29662;SDS011;16578;53.266;7.920;2022-11-20T07:17:20;14.32;;;9.55;;
29662;SDS011;16578;53.266;7.920;2022-11-20T07:19:45;12.15;;;8.88;;
29662;SDS011;16578;53.266;7.920;2022-11-20T07:22:11;11.65;;;8.48;;
29662;SDS011;16578;53.266;7.920;2022-11-20T07:24:36;13.98;;;9.40;;
29662;SDS011;16578;53.266;7.920;2022-11-20T07:27:02;12.98;;;9.05;;
29662;SDS011;16578;53.266;7.920;2022-11-20T07:29:28;15.30;;;9.93;;
29662;SDS011;16578;53.266;7.920;2022-11-20T07:31:54;15.63;;;9.32;;
29662;SDS011;16578;53.266;7.920;2022-11-20T07:34:21;11.35;;;8.75;;
29662;SDS011;16578;53.266;7.920;2022-11-20T07:36:46;13.13;;;9.05;;
29662;SDS011;16578;53.266;7.920;2022-11-20T07:39:12;14.00;;;9.82;;
29662;SDS011;16578;53.266;7.920;2022-11-20T07:41:37;13.68;;;9.63;;
29662;SDS011;16578;53.266;7.920;2022-11-20T07:44:03;14.70;;;9.45;;
29662;SDS011;16578;53.266;7.920;2022-11-20T07:46:29;12.68;;;8.70;;
29662;SDS011;16578;53.266;7.920;2022-11-20T07:48:54;15.10;;;10.02;;
29662;SDS011;16578;53.266;7.920;2022-11-20T07:51:20;13.18;;;9.30;;
29662;SDS011;16578;53.266;7.920;2022-11-20T07:53:45;14.70;;;10.70;;
29662;SDS011;16578;53.266;7.920;2022-11-20T07:56:11;14.73;;;9.85;;
29662;SDS011;16578;53.266;7.920;2022-11-20T07:58:38;13.17;;;9.03;;
29662;SDS011;16578;53.266;7.920;2022-11-20T08:01:04;13.45;;;10.63;;
29662;SDS011;16578;53.266;7.920;2022-11-20T08:03:31;13.70;;;9.15;;
29662;SDS011;16578;53.266;7.920;2022-11-20T08:06:00;17.13;;;11.23;;
29662;SDS011;16578;53.266;7.920;2022-11-20T08:08:26;15.60;;;10.40;;
29662;SDS011;16578;53.266;7.920;2022-11-20T08:10:52;15.55;;;10.13;;
29662;SDS011;16578;53.266;7.920;2022-11-20T08:13:38;16.20;;;10.32;;
29662;SDS011;16578;53.266;7.920;2022-11-20T08:16:22;15.82;;;11.00;;
29662;SDS011;16578;53.266;7.920;2022-11-20T08:18:47;15.50;;;10.98;;
29662;SDS011;16578;53.266;7.920;2022-11-20T08:21:13;13.77;;;9.70;;
29662;SDS011;16578;53.266;7.920;2022-11-20T08:23:38;14.27;;;10.57;;
29662;SDS011;16578;53.266;7.920;2022-11-20T08:26:04;12.07;;;9.45;;
29662;SDS011;16578;53.266;7.920;2022-11-20T08:28:29;14.48;;;9.82;;
29662;SDS011;16578;53.266;7.920;2022-11-20T08:31:02;15.98;;;10.25;;
29662;SDS011;16578;53.266;7.920;2022-11-20T08:33:28;14.13;;;9.82;;
29662;SDS011;16578;53.266;7.920;2022-11-20T08:35:58;15.93;;;10.30;;
29662;SDS011;16578;53.266;7.920;2022-11-20T08:38:25;16.25;;;10.57;;
29662;SDS011;16578;53.266;7.920;2022-11-20T08:40:51;16.33;;;10.68;;
29662;SDS011;16578;53.266;7.920;2022-11-20T08:43:35;15.13;;;10.20;;
29662;SDS011;16578;53.266;7.920;2022-11-20T08:46:01;11.48;;;8.77;;
29662;SDS011;16578;53.266;7.920;2022-11-20T08:48:26;15.02;;;10.50;;
29662;SDS011;16578;53.266;7.920;2022-11-20T08:50:52;14.52;;;9.77;;
29662;SDS011;16578;53.266;7.920;2022-11-20T08:53:17;15.20;;;9.90;;
29662;SDS011;16578;53.266;7.920;2022-11-20T08:55:43;14.38;;;10.52;;
29662;SDS011;16578;53.266;7.920;2022-11-20T08:58:08;17.15;;;10.93;;
29662;SDS011;16578;53.266;7.920;2022-11-20T09:00:34;15.20;;;9.68;;
29662;SDS011;16578;53.266;7.920;2022-11-20T09:03:00;18.05;;;10.68;;
29662;SDS011;16578;53.266;7.920;2022-11-20T09:05:26;14.48;;;9.50;;
29662;SDS011;16578;53.266;7.920;2022-11-20T09:07:55;14.27;;;10.25;;
29662;SDS011;16578;53.266;7.920;2022-11-20T09:10:21;13.38;;;9.60;;
29662;SDS011;16578;53.266;7.920;2022-11-20T09:12:50;12.77;;;9.63;;
29662;SDS011;16578;53.266;7.920;2022-11-20T09:15:20;15.57;;;10.05;;
29662;SDS011;16578;53.266;7.920;2022-11-20T09:17:52;15.75;;;10.68;;
29662;SDS011;16578;53.266;7.920;2022-11-20T09:20:25;15.98;;;10.07;;
29662;SDS011;16578;53.266;7.920;2022-11-20T09:22:53;14.63;;;9.63;;
29662;SDS011;16578;53.266;7.920;2022-11-20T09:25:19;14.20;;;9.60;;
29662;SDS011;16578;53.266;7.920;2022-11-20T09:27:45;14.30;;;10.07;;
29662;SDS011;16578;53.266;7.920;2022-11-20T09:30:11;15.20;;;10.65;;
29662;SDS011;16578;53.266;7.920;2022-11-20T09:32:40;14.15;;;10.18;;
29662;SDS011;16578;53.266;7.920;2022-11-20T09:35:06;14.40;;;10.57;;
29662;SDS011;16578;53.266;7.920;2022-11-20T09:37:32;13.82;;;10.05;;
29662;SDS011;16578;53.266;7.920;2022-11-20T09:39:58;14.60;;;10.82;;
29662;SDS011;16578;53.266;7.920;2022-11-20T09:45:19;17.50;;;10.38;;
29662;SDS011;16578;53.266;7.920;2022-11-20T09:50:45;13.40;;;8.60;;
29662;SDS011;16578;53.266;7.920;2022-11-20T09:56:15;14.63;;;10.30;;
29662;SDS011;16578;53.266;7.920;2022-11-20T09:58:47;18.10;;;10.18;;
29662;SDS011;16578;53.266;7.920;2022-11-20T10:01:20;15.40;;;10.95;;
29662;SDS011;16578;53.266;7.920;2022-11-20T10:03:55;14.75;;;10.85;;
29662;SDS011;16578;53.266;7.920;2022-11-20T10:06:30;13.43;;;10.00;;
29662;SDS011;16578;53.266;7.920;2022-11-20T10:09:07;16.40;;;10.38;;
29662;SDS011;16578;53.266;7.920;2022-11-20T10:11:48;12.40;;;9.50;;
29662;SDS011;16578;53.266;7.920;2022-11-20T10:14:32;13.73;;;8.93;;
29662;SDS011;16578;53.266;7.920;2022-11-20T10:19:56;13.30;;;9.05;;
29662;SDS011;16578;53.266;7.920;2022-11-20T10:25:06;13.93;;;10.90;;
29662;SDS011;16578;53.266;7.920;2022-11-20T10:30:18;14.13;;;10.00;;
29662;SDS011;16578;53.266;7.920;2022-11-20T10:32:58;14.02;;;10.02;;
29662;SDS011;16578;53.266;7.920;2022-11-20T10:35:31;12.60;;;9.13;;
29662;SDS011;16578;53.266;7.920;2022-11-20T10:38:02;13.20;;;9.35;;
29662;SDS011;16578;53.266;7.920;2022-11-20T10:40:35;12.27;;;8.82;;
29662;SDS011;16578;53.266;7.920;2022-11-20T10:43:16;13.10;;;9.40;;
29662;SDS011;16578;53.266;7.920;2022-11-20T10:45:50;13.63;;;9.32;;
29662;SDS011;16578;53.266;7.920;2022-11-20T10:48:24;15.20;;;8.90;;
29662;SDS011;16578;53.266;7.920;2022-11-20T10:53:54;14.23;;;9.18;;
29662;SDS011;16578;53.266;7.920;2022-11-20T10:56:40;13.40;;;10.57;;
29662;SDS011;16578;53.266;7.920;2022-11-20T10:59:11;15.13;;;10.05;;
29662;SDS011;16578;53.266;7.920;2022-11-20T11:01:52;13.32;;;9.30;;
29662;SDS011;16578;53.266;7.920;2022-11-20T11:06:52;15.45;;;11.23;;
29662;SDS011;16578;53.266;7.920;2022-11-20T11:09:32;16.85;;;11.43;;
29662;SDS011;16578;53.266;7.920;2022-11-20T11:12:06;15.43;;;11.48;;
29662;SDS011;16578;53.266;7.920;2022-11-20T11:14:41;12.95;;;9.07;;
29662;SDS011;16578;53.266;7.920;2022-11-20T11:17:28;12.95;;;9.05;;
29662;SDS011;16578;53.266;7.920;2022-11-20T11:22:28;18.08;;;13.15;;
29662;SDS011;16578;53.266;7.920;2022-11-20T11:24:56;18.05;;;12.02;;
29662;SDS011;16578;53.266;7.920;2022-11-20T11:27:21;19.42;;;12.50;;
29662;SDS011;16578;53.266;7.920;2022-11-20T11:29:47;15.55;;;12.27;;
29662;SDS011;16578;53.266;7.920;2022-11-20T11:32:16;13.07;;;9.68;;
29662;SDS011;16578;53.266;7.920;2022-11-20T11:34:45;11.23;;;8.55;;
29662;SDS011;16578;53.266;7.920;2022-11-20T11:37:28;12.57;;;8.65;;
29662;SDS011;16578;53.266;7.920;2022-11-20T11:40:03;11.55;;;8.77;;
29662;SDS011;16578;53.266;7.920;2022-11-20T11:42:30;12.80;;;9.00;;
29662;SDS011;16578;53.266;7.920;2022-11-20T11:44:56;10.07;;;8.43;;
29662;SDS011;16578;53.266;7.920;2022-11-20T11:52:56;11.70;;;9.33;;
29662;SDS011;16578;53.266;7.920;2022-11-20T11:55:46;16.35;;;11.15;;
29662;SDS011;16578;53.266;7.920;2022-11-20T12:01:08;11.95;;;9.38;;
29662;SDS011;16578;53.266;7.920;2022-11-20T12:06:29;11.52;;;8.48;;
29662;SDS011;16578;53.266;7.920;2022-11-20T12:11:30;9.45;;;7.70;;
29662;SDS011;16578;53.266;7.920;2022-11-20T12:16:49;9.98;;;8.32;;
29662;SDS011;16578;53.266;7.920;2022-11-20T12:19:15;10.65;;;8.68;;
29662;SDS011;16578;53.266;7.920;2022-11-20T12:22:02;9.18;;;7.47;;
29662;SDS011;16578;53.266;7.920;2022-11-20T12:30:16;9.45;;;7.47;;
29662;SDS011;16578;53.266;7.920;2022-11-20T12:43:21;11.93;;;8.18;;
29662;SDS011;16578;53.266;7.920;2022-11-20T12:46:18;11.85;;;8.75;;
29662;SDS011;16578;53.266;7.920;2022-11-20T12:49:02;12.07;;;9.10;;
29662;SDS011;16578;53.266;7.920;2022-11-20T12:52:02;13.85;;;9.07;;
29662;SDS011;16578;53.266;7.920;2022-11-20T12:54:46;10.48;;;7.88;;
29662;SDS011;16578;53.266;7.920;2022-11-20T12:57:50;10.60;;;7.63;;
29662;SDS011;16578;53.266;7.920;2022-11-20T13:00:18;9.63;;;7.20;;
29662;SDS011;16578;53.266;7.920;2022-11-20T13:05:31;9.63;;;7.17;;
29662;SDS011;16578;53.266;7.920;2022-11-20T13:08:20;9.32;;;7.13;;
29662;SDS011;16578;53.266;7.920;2022-11-20T13:10:59;9.45;;;8.02;;
29662;SDS011;16578;53.266;7.920;2022-11-20T13:13:46;9.25;;;7.53;;
29662;SDS011;16578;53.266;7.920;2022-11-20T13:19:09;9.52;;;7.07;;
29662;SDS011;16578;53.266;7.920;2022-11-20T13:21:42;9.77;;;7.55;;
29662;SDS011;16578;53.266;7.920;2022-11-20T13:26:59;9.43;;;6.78;;
29662;SDS011;16578;53.266;7.920;2022-11-20T13:29:29;10.65;;;6.90;;
29662;SDS011;16578;53.266;7.920;2022-11-20T13:32:15;9.90;;;7.85;;
29662;SDS011;16578;53.266;7.920;2022-11-20T13:34:55;12.73;;;8.82;;
29662;SDS011;16578;53.266;7.920;2022-11-20T13:37:28;13.38;;;9.20;;
29662;SDS011;16578;53.266;7.920;2022-11-20T13:42:36;11.40;;;8.95;;
29662;SDS011;16578;53.266;7.920;2022-11-20T13:45:09;11.88;;;8.88;;
29662;SDS011;16578;53.266;7.920;2022-11-20T13:47:49;12.18;;;8.43;;
29662;SDS011;16578;53.266;7.920;2022-11-20T13:50:16;11.48;;;8.35;;
29662;SDS011;16578;53.266;7.920;2022-11-20T13:52:54;12.65;;;8.65;;
29662;SDS011;16578;53.266;7.920;2022-11-20T13:58:19;11.73;;;8.82;;
29662;SDS011;16578;53.266;7.920;2022-11-20T14:01:10;15.25;;;9.85;;
29662;SDS011;16578;53.266;7.920;2022-11-20T14:03:41;13.82;;;9.40;;
29662;SDS011;16578;53.266;7.920;2022-11-20T14:06:15;12.93;;;9.00;;
29662;SDS011;16578;53.266;7.920;2022-11-20T14:08:52;13.93;;;9.85;;
29662;SDS011;16578;53.266;7.920;2022-11-20T14:11:19;11.07;;;8.63;;
29662;SDS011;16578;53.266;7.920;2022-11-20T14:14:22;9.65;;;7.82;;
29662;SDS011;16578;53.266;7.920;2022-11-20T14:16:49;11.05;;;8.40;;
29662;SDS011;16578;53.266;7.920;2022-11-20T14:24:41;10.93;;;8.93;;
29662;SDS011;16578;53.266;7.920;2022-11-20T14:27:13;13.68;;;9.77;;
29662;SDS011;16578;53.266;7.920;2022-11-20T14:29:42;16.10;;;11.02;;
29662;SDS011;16578;53.266;7.920;2022-11-20T14:32:10;16.35;;;11.57;;
29662;SDS011;16578;53.266;7.920;2022-11-20T14:34:37;20.60;;;13.60;;
29662;SDS011;16578;53.266;7.920;2022-11-20T14:37:06;17.65;;;13.07;;
29662;SDS011;16578;53.266;7.920;2022-11-20T14:39:40;13.80;;;10.27;;
29662;SDS011;16578;53.266;7.920;2022-11-20T14:42:14;13.25;;;9.07;;
29662;SDS011;16578;53.266;7.920;2022-11-20T14:44:41;10.55;;;8.27;;
29662;SDS011;16578;53.266;7.920;2022-11-20T14:47:08;13.30;;;9.88;;
29662;SDS011;16578;53.266;7.920;2022-11-20T14:49:42;13.80;;;9.52;;
29662;SDS011;16578;53.266;7.920;2022-11-20T14:52:11;15.07;;;9.80;;
29662;SDS011;16578;53.266;7.920;2022-11-20T14:54:46;13.75;;;8.80;;
29662;SDS011;16578;53.266;7.920;2022-11-20T14:57:23;11.82;;;8.52;;
29662;SDS011;16578;53.266;7.920;2022-11-20T14:59:51;15.88;;;9.45;;
29662;SDS011;16578;53.266;7.920;2022-11-20T15:02:29;12.02;;;8.75;;
29662;SDS011;16578;53.266;7.920;2022-11-20T15:04:59;18.83;;;12.48;;
29662;SDS011;16578;53.266;7.920;2022-11-20T15:07:32;12.18;;;8.93;;
29662;SDS011;16578;53.266;7.920;2022-11-20T15:10:00;13.25;;;8.82;;
29662;SDS011;16578;53.266;7.920;2022-11-20T15:12:35;14.57;;;10.32;;
29662;SDS011;16578;53.266;7.920;2022-11-20T15:15:03;13.60;;;9.65;;
29662;SDS011;16578;53.266;7.920;2022-11-20T15:17:30;12.77;;;8.57;;
29662;SDS011;16578;53.266;7.920;2022-11-20T15:19:57;14.52;;;8.70;;
29662;SDS011;16578;53.266;7.920;2022-11-20T15:22:24;15.35;;;10.18;;
29662;SDS011;16578;53.266;7.920;2022-11-20T15:24:50;16.70;;;8.90;;
29662;SDS011;16578;53.266;7.920;2022-11-20T15:27:15;15.35;;;8.93;;
29662;SDS011;16578;53.266;7.920;2022-11-20T15:29:41;13.45;;;8.48;;
29662;SDS011;16578;53.266;7.920;2022-11-20T15:32:07;13.98;;;8.82;;
29662;SDS011;16578;53.266;7.920;2022-11-20T15:34:33;19.70;;;11.27;;
29662;SDS011;16578;53.266;7.920;2022-11-20T15:36:59;19.10;;;10.85;;
29662;SDS011;16578;53.266;7.920;2022-11-20T15:39:25;17.42;;;10.07;;
29662;SDS011;16578;53.266;7.920;2022-11-20T15:41:50;14.30;;;9.48;;
29662;SDS011;16578;53.266;7.920;2022-11-20T15:44:16;21.55;;;11.95;;
29662;SDS011;16578;53.266;7.920;2022-11-20T15:46:41;18.65;;;11.32;;
29662;SDS011;16578;53.266;7.920;2022-11-20T15:49:13;19.33;;;11.02;;
29662;SDS011;16578;53.266;7.920;2022-11-20T15:51:41;15.75;;;10.98;;
29662;SDS011;16578;53.266;7.920;2022-11-20T15:56:38;17.13;;;12.48;;
29662;SDS011;16578;53.266;7.920;2022-11-20T15:59:03;14.77;;;11.27;;
29662;SDS011;16578;53.266;7.920;2022-11-20T16:01:29;14.52;;;10.70;;
29662;SDS011;16578;53.266;7.920;2022-11-20T16:03:55;13.65;;;10.15;;
29662;SDS011;16578;53.266;7.920;2022-11-20T16:06:21;16.40;;;10.10;;
29662;SDS011;16578;53.266;7.920;2022-11-20T16:08:46;15.50;;;10.35;;
29662;SDS011;16578;53.266;7.920;2022-11-20T16:11:12;17.27;;;10.70;;
29662;SDS011;16578;53.266;7.920;2022-11-20T16:13:40;15.15;;;10.35;;
29662;SDS011;16578;53.266;7.920;2022-11-20T16:16:34;16.35;;;9.90;;